Time;durP1;ratioP1;P1;durP2;ratioP2;P2;SDS_P1;SDS_P2;PMS_P1;PMS_P2;Temp;Humidity;BMP_temperature;BMP_pressure;BME280_temperature;BME280_humidity;BME280_pressure;Samples;Min_cycle;Max_cycle;Signal;HPM_P1;HPM_P2
2021/06/03 00:02:00;;;;;;;5.90;5.40;;;16.70;97.50;;;;;;5088335;28;20186;-91
2021/06/03 00:04:28;;;;;;;5.83;5.43;;;16.70;97.60;;;;;;5086637;28;20436;-91
2021/06/03 00:07:03;;;;;;;5.60;5.20;;;16.60;98.00;;;;;;5080956;28;20486;-91
2021/06/03 00:09:29;;;;;;;6.07;5.57;;;16.50;98.10;;;;;;5084855;28;20877;-91
2021/06/03 00:11:55;;;;;;;6.60;5.23;;;16.50;98.40;;;;;;5083445;28;20451;-91
2021/06/03 00:14:21;;;;;;;8.30;5.67;;;16.50;98.40;;;;;;5085336;28;20482;-88
2021/06/03 00:16:47;;;;;;;7.60;5.27;;;16.50;98.70;;;;;;5085746;28;20444;-89
2021/06/03 00:19:13;;;;;;;7.00;5.23;;;16.40;98.70;;;;;;5084710;28;20445;-89
2021/06/03 00:21:44;;;;;;;5.27;4.97;;;16.40;98.90;;;;;;5080112;28;20451;-89
2021/06/03 00:24:11;;;;;;;5.53;4.97;;;16.40;99.10;;;;;;5095156;27;20179;-89
2021/06/03 00:26:37;;;;;;;6.30;5.80;;;16.50;99.10;;;;;;5087264;28;20490;-89
2021/06/03 00:29:04;;;;;;;5.97;5.50;;;16.60;99.20;;;;;;5083372;28;20448;-89
2021/06/03 00:31:30;;;;;;;6.30;5.70;;;16.50;99.40;;;;;;5082164;28;20509;-89
2021/06/03 00:33:56;;;;;;;6.00;5.60;;;16.40;99.90;;;;;;5078363;28;20459;-88
2021/06/03 00:36:22;;;;;;;6.90;6.30;;;16.40;99.90;;;;;;5082149;28;20799;-89
2021/06/03 00:38:47;;;;;;;7.87;6.37;;;16.30;99.90;;;;;;5080165;28;20585;-89
2021/06/03 00:41:54;;;;;;;6.40;5.90;;;16.30;99.90;;;;;;5085265;28;20259;-89
2021/06/03 00:44:20;;;;;;;6.50;6.00;;;16.30;99.90;;;;;;5083518;28;20523;-89
2021/06/03 00:46:46;;;;;;;6.00;5.60;;;16.30;99.90;;;;;;5083280;28;20548;-89
2021/06/03 00:49:12;;;;;;;5.60;5.20;;;16.30;99.90;;;;;;5083640;28;20182;-89
2021/06/03 00:51:38;;;;;;;6.10;5.60;;;16.20;99.90;;;;;;5082458;28;20448;-89
2021/06/03 00:54:04;;;;;;;7.57;6.97;;;16.10;99.90;;;;;;5084444;28;20178;-89
2021/06/03 00:56:31;;;;;;;7.87;6.50;;;16.00;99.90;;;;;;5099631;27;20458;-89
2021/06/03 00:58:57;;;;;;;8.13;7.33;;;16.10;99.90;;;;;;5087263;28;20446;-89
2021/06/03 01:01:23;;;;;;;9.93;8.37;;;16.10;99.90;;;;;;5087532;28;20436;-89
2021/06/03 01:03:48;;;;;;;8.57;7.77;;;16.00;99.90;;;;;;5083739;28;20587;-89
2021/06/03 01:06:25;;;;;;;9.30;7.73;;;15.90;99.90;;;;;;5087058;28;20201;-89
2021/06/03 01:09:28;;;;;;;6.20;5.70;;;15.70;99.90;;;;;;5088641;28;20450;-88
2021/06/03 01:12:34;;;;;;;7.73;7.03;;;15.70;99.90;;;;;;5083728;28;20518;-89
2021/06/03 01:15:06;;;;;;;7.53;6.90;;;15.50;99.90;;;;;;5081554;28;20433;-89
2021/06/03 01:17:32;;;;;;;7.50;6.80;;;15.40;99.90;;;;;;5099228;27;20416;-89
2021/06/03 01:19:59;;;;;;;6.50;6.10;;;15.30;99.90;;;;;;5085605;28;20790;-89
2021/06/03 01:22:49;;;;;;;7.13;6.53;;;15.30;99.90;;;;;;5081985;28;20927;-89
2021/06/03 01:25:16;;;;;;;6.93;6.33;;;15.20;99.90;;;;;;5082381;28;20456;-89
2021/06/03 01:27:42;;;;;;;7.23;6.63;;;15.10;99.90;;;;;;5086351;28;20444;-89
2021/06/03 01:30:07;;;;;;;6.10;5.70;;;15.00;99.90;;;;;;5082283;28;20472;-89
2021/06/03 01:32:37;;;;;;;7.67;7.00;;;15.00;99.90;;;;;;5083944;28;20440;-89
2021/06/03 01:35:05;;;;;;;6.93;6.23;;;15.00;99.90;;;;;;5082568;28;20211;-89
2021/06/03 01:37:32;;;;;;;6.53;6.03;;;15.00;99.90;;;;;;5088557;28;20933;-89
2021/06/03 01:39:58;;;;;;;7.27;6.67;;;14.90;99.90;;;;;;5081369;28;20535;-89
2021/06/03 01:42:24;;;;;;;6.37;5.73;;;14.90;99.90;;;;;;5082178;28;20436;-89
2021/06/03 01:44:50;;;;;;;7.30;6.70;;;14.80;99.90;;;;;;5083604;28;20522;-89
2021/06/03 01:47:16;;;;;;;6.47;5.97;;;14.80;99.90;;;;;;5081086;28;20808;-89
2021/06/03 01:49:43;;;;;;;6.87;6.37;;;14.90;99.90;;;;;;5081297;28;20476;-91
2021/06/03 01:52:09;;;;;;;7.00;6.40;;;15.00;99.90;;;;;;5099727;28;20431;-89
2021/06/03 01:54:35;;;;;;;7.07;6.47;;;15.20;99.90;;;;;;5084784;28;20535;-91
2021/06/03 01:57:03;;;;;;;6.60;6.10;;;15.30;99.90;;;;;;5084316;28;20433;-89
2021/06/03 01:59:31;;;;;;;6.57;5.97;;;15.30;99.90;;;;;;5083192;28;20436;-89
2021/06/03 02:01:57;;;;;;;7.53;6.30;;;15.30;99.90;;;;;;5083950;28;20491;-89
2021/06/03 02:04:23;;;;;;;6.70;6.17;;;15.30;99.90;;;;;;5085661;28;20436;-89
2021/06/03 02:06:48;;;;;;;6.80;6.30;;;15.30;99.90;;;;;;5087173;28;20678;-89
2021/06/03 02:09:15;;;;;;;7.00;6.40;;;15.30;99.90;;;;;;5067021;28;20208;-90
2021/06/03 02:11:43;;;;;;;7.90;7.20;;;15.40;99.90;;;;;;5084529;28;20214;-90
2021/06/03 02:14:12;;;;;;;6.70;6.20;;;15.40;99.90;;;;;;5085175;28;20429;-91
2021/06/03 02:16:44;;;;;;;6.60;6.10;;;15.40;99.90;;;;;;5081773;28;20452;-91
2021/06/03 02:19:22;;;;;;;7.00;6.40;;;15.50;99.90;;;;;;5082114;28;20444;-91
2021/06/03 02:21:49;;;;;;;8.00;7.30;;;15.50;99.90;;;;;;5082442;28;21723;-91
2021/06/03 02:24:15;;;;;;;7.57;6.87;;;15.50;99.90;;;;;;5082917;28;20448;-91
2021/06/03 02:26:43;;;;;;;7.47;6.63;;;15.50;99.90;;;;;;5087319;28;20429;-91
2021/06/03 02:29:12;;;;;;;6.70;6.10;;;15.50;99.90;;;;;;5087409;28;20779;-89
2021/06/03 02:31:39;;;;;;;7.70;6.67;;;15.60;99.90;;;;;;5084496;28;20452;-89
2021/06/03 02:34:06;;;;;;;6.57;6.17;;;15.70;99.90;;;;;;5081376;28;20602;-89
2021/06/03 02:36:35;;;;;;;6.07;5.67;;;15.60;99.90;;;;;;5084603;28;20432;-89
2021/06/03 02:39:15;;;;;;;6.97;6.30;;;15.60;99.90;;;;;;5082817;28;20516;-89
2021/06/03 02:41:44;;;;;;;6.80;6.23;;;15.60;99.90;;;;;;5082210;28;20775;-88
2021/06/03 02:44:12;;;;;;;7.23;6.63;;;15.70;99.90;;;;;;5088543;28;20554;-91
2021/06/03 02:46:38;;;;;;;7.57;6.90;;;15.60;99.90;;;;;;5082353;28;20428;-89
2021/06/03 02:49:04;;;;;;;8.70;7.60;;;15.70;99.90;;;;;;5066247;28;20474;-90
2021/06/03 02:51:30;;;;;;;7.80;7.10;;;15.80;99.90;;;;;;5087839;28;20202;-90
2021/06/03 02:53:57;;;;;;;7.37;6.87;;;15.80;99.90;;;;;;5086622;28;20455;-89
2021/06/03 02:56:22;;;;;;;7.07;6.43;;;15.80;99.90;;;;;;5085390;28;20706;-91
2021/06/03 02:58:48;;;;;;;7.90;7.20;;;15.70;99.90;;;;;;5085945;28;20448;-92
2021/06/03 03:01:17;;;;;;;7.37;6.77;;;15.70;99.90;;;;;;5086270;28;20186;-91
2021/06/03 03:03:44;;;;;;;7.40;6.70;;;15.70;99.90;;;;;;5086708;28;20182;-90
2021/06/03 03:06:10;;;;;;;7.93;7.23;;;15.70;99.90;;;;;;5084267;28;20457;-91
2021/06/03 03:08:36;;;;;;;7.63;7.03;;;15.50;99.90;;;;;;5085180;28;20436;-91
2021/06/03 03:11:03;;;;;;;8.00;7.30;;;15.50;99.90;;;;;;5087734;28;20867;-90
2021/06/03 03:13:29;;;;;;;7.33;6.73;;;15.50;99.90;;;;;;5083639;28;20433;-89
2021/06/03 03:15:55;;;;;;;8.13;7.53;;;15.30;99.90;;;;;;5086196;28;20792;-90
2021/06/03 03:18:25;;;;;;;8.33;7.47;;;15.30;99.90;;;;;;5086513;28;20960;-92
2021/06/03 03:20:51;;;;;;;7.43;6.80;;;15.10;99.90;;;;;;5083567;28;20817;-91
2021/06/03 03:23:21;;;;;;;6.83;6.23;;;15.20;99.90;;;;;;5087127;28;20471;-91
2021/06/03 03:25:56;;;;;;;7.43;6.87;;;15.20;99.90;;;;;;5083163;28;20428;-91
2021/06/03 03:28:29;;;;;;;7.87;7.17;;;15.30;99.90;;;;;;5086735;28;20478;-91
2021/06/03 03:31:07;;;;;;;7.40;6.63;;;15.30;99.90;;;;;;5087333;28;21015;-91
2021/06/03 03:33:44;;;;;;;7.57;6.97;;;15.30;99.90;;;;;;5085979;28;20505;-91
2021/06/03 03:36:37;;;;;;;7.57;6.97;;;15.30;99.90;;;;;;5079133;28;20543;-91
2021/06/03 03:39:04;;;;;;;6.83;6.30;;;15.30;99.90;;;;;;5082390;28;20488;-89
2021/06/03 03:41:31;;;;;;;8.33;7.03;;;15.40;99.90;;;;;;5086035;28;20460;-91
2021/06/03 03:43:57;;;;;;;7.67;7.07;;;15.30;99.90;;;;;;5081331;28;20440;-91
2021/06/03 03:46:23;;;;;;;7.57;6.90;;;15.30;99.90;;;;;;5083656;28;20923;-91
2021/06/03 03:48:48;;;;;;;7.20;6.60;;;15.40;99.90;;;;;;5084337;28;20183;-91
2021/06/03 03:51:15;;;;;;;8.00;7.30;;;15.40;99.90;;;;;;5083219;28;20214;-88
2021/06/03 03:53:42;;;;;;;7.67;7.10;;;15.50;99.90;;;;;;5084240;28;20189;-91
2021/06/03 03:56:08;;;;;;;8.73;8.03;;;15.60;99.90;;;;;;5084853;28;20448;-91
2021/06/03 03:58:37;;;;;;;7.77;7.00;;;15.70;99.90;;;;;;5086789;28;20459;-91
2021/06/03 04:01:05;;;;;;;7.67;7.03;;;15.80;99.90;;;;;;5083510;28;20506;-91
2021/06/03 04:03:30;;;;;;;7.47;6.97;;;15.80;99.90;;;;;;5079460;28;20540;-91
2021/06/03 04:05:57;;;;;;;9.33;7.70;;;15.80;99.90;;;;;;5083820;28;20586;-91
2021/06/03 04:08:28;;;;;;;8.37;6.90;;;15.90;99.90;;;;;;5084211;28;20649;-91
2021/06/03 04:10:54;;;;;;;7.67;6.97;;;16.00;99.90;;;;;;5084312;28;20854;-91
2021/06/03 04:13:20;;;;;;;8.30;7.60;;;16.00;99.90;;;;;;5084508;28;20818;-92
2021/06/03 04:15:46;;;;;;;7.57;6.73;;;16.10;99.90;;;;;;5087448;28;20454;-91
2021/06/03 04:18:12;;;;;;;8.53;7.77;;;16.20;99.90;;;;;;5086279;28;20201;-92
2021/06/03 04:20:46;;;;;;;8.40;7.70;;;16.20;99.90;;;;;;5084444;28;20193;-90
2021/06/03 04:23:24;;;;;;;7.90;7.30;;;16.20;99.90;;;;;;5088616;28;20485;-91
2021/06/03 04:25:50;;;;;;;8.50;7.70;;;16.20;99.90;;;;;;5083509;28;20533;-92
2021/06/03 04:28:16;;;;;;;8.17;7.47;;;16.20;99.90;;;;;;5085015;28;20961;-91
2021/06/03 04:30:42;;;;;;;7.97;7.37;;;16.10;99.90;;;;;;5088452;28;20221;-92
2021/06/03 04:33:09;;;;;;;8.60;7.77;;;16.00;99.90;;;;;;5085219;28;20651;-92
2021/06/03 04:35:35;;;;;;;8.07;7.47;;;16.00;99.90;;;;;;5087471;28;21739;-91
2021/06/03 04:38:01;;;;;;;7.83;7.13;;;16.10;99.90;;;;;;5084168;28;20471;-91
2021/06/03 04:40:27;;;;;;;8.53;7.10;;;16.20;99.90;;;;;;5086035;28;20494;-92
2021/06/03 04:42:53;;;;;;;8.57;7.87;;;16.10;99.90;;;;;;5086428;28;20191;-90
2021/06/03 04:45:36;;;;;;;8.60;7.90;;;16.10;99.90;;;;;;5085453;28;20219;-92
2021/06/03 04:48:07;;;;;;;8.47;7.67;;;16.20;99.90;;;;;;5086220;28;20435;-89
2021/06/03 04:50:46;;;;;;;9.37;8.50;;;16.20;99.90;;;;;;5087891;28;20479;-92
2021/06/03 04:53:32;;;;;;;7.97;7.37;;;16.20;99.90;;;;;;5084918;28;20843;-90
2021/06/03 04:56:09;;;;;;;8.37;7.67;;;16.20;99.90;;;;;;5083632;28;20455;-90
2021/06/03 04:58:35;;;;;;;8.67;7.87;;;16.30;99.90;;;;;;5084013;28;20420;-89
2021/06/03 05:01:01;;;;;;;8.60;7.70;;;16.40;99.90;;;;;;5082902;28;20831;-89
2021/06/03 05:03:26;;;;;;;8.27;7.57;;;16.50;99.90;;;;;;5082174;28;20640;-90
2021/06/03 05:05:55;;;;;;;7.23;6.53;;;16.50;99.90;;;;;;5084510;28;20198;-89
2021/06/03 05:08:22;;;;;;;7.30;6.70;;;16.60;99.90;;;;;;5084696;28;20278;-90
2021/06/03 05:10:51;;;;;;;7.40;6.77;;;16.60;99.90;;;;;;5082033;28;20567;-90
2021/06/03 05:13:26;;;;;;;7.40;6.80;;;16.70;99.90;;;;;;5083040;28;20428;-89
2021/06/03 05:15:53;;;;;;;7.30;6.60;;;16.90;99.90;;;;;;5084032;28;20452;-90
2021/06/03 05:18:38;;;;;;;8.07;7.47;;;17.00;99.90;;;;;;5087597;28;20497;-89
2021/06/03 05:21:19;;;;;;;7.50;6.90;;;17.10;99.90;;;;;;5086330;28;20454;-90
2021/06/03 05:24:02;;;;;;;11.17;7.60;;;17.20;99.90;;;;;;5082814;28;20483;-90
2021/06/03 05:26:35;;;;;;;7.33;6.73;;;17.20;99.90;;;;;;5087311;28;20456;-89
2021/06/03 05:29:16;;;;;;;7.00;6.40;;;17.30;99.90;;;;;;5081138;28;20441;-90
2021/06/03 05:31:49;;;;;;;8.37;7.67;;;17.40;99.90;;;;;;5097530;27;20845;-90
2021/06/03 05:37:23;;;;;;;8.23;7.43;;;17.60;99.90;;;;;;5085549;28;20547;-90
2021/06/03 05:40:07;;;;;;;7.87;7.27;;;17.80;99.90;;;;;;5080733;28;20948;-90
2021/06/03 05:42:35;;;;;;;7.17;6.60;;;18.00;99.90;;;;;;5080852;28;20445;-90
2021/06/03 05:45:03;;;;;;;6.93;6.40;;;18.20;99.90;;;;;;5080567;28;20824;-89
2021/06/03 05:47:32;;;;;;;6.53;6.03;;;18.30;99.90;;;;;;5080157;28;20437;-89
2021/06/03 05:49:59;;;;;;;6.90;6.40;;;18.40;99.90;;;;;;5082317;28;21020;-90
2021/06/03 05:52:28;;;;;;;6.30;5.83;;;18.50;99.90;;;;;;5083522;28;20905;-90
2021/06/03 05:54:55;;;;;;;7.10;6.60;;;18.70;99.90;;;;;;5084379;28;20205;-89
2021/06/03 05:57:22;;;;;;;6.73;6.07;;;18.90;99.90;;;;;;5082051;28;20940;-90
2021/06/03 05:59:48;;;;;;;6.60;6.00;;;18.90;99.90;;;;;;5082025;28;20805;-92
2021/06/03 06:07:29;;;;;;;6.30;5.10;;;19.40;99.90;;;;;;5084886;28;20455;-93
2021/06/03 06:09:56;;;;;;;5.67;5.27;;;19.50;99.90;;;;;;5086823;28;20487;-91
2021/06/03 06:15:07;;;;;;;5.50;5.10;;;19.40;99.90;;;;;;5085078;28;20479;-89
2021/06/03 06:17:33;;;;;;;6.27;5.80;;;19.20;99.90;;;;;;5083265;28;20432;-90
2021/06/03 06:19:58;;;;;;;5.50;5.07;;;19.10;99.90;;;;;;5080604;28;20463;-90
2021/06/03 06:22:24;;;;;;;5.60;5.20;;;19.10;99.90;;;;;;5085301;28;20184;-90
2021/06/03 06:24:50;;;;;;;5.97;5.50;;;19.10;99.90;;;;;;5083572;28;20196;-89
2021/06/03 06:27:15;;;;;;;5.50;5.10;;;19.00;99.90;;;;;;5084789;28;20190;-94
2021/06/03 06:29:47;;;;;;;6.10;5.70;;;18.90;99.90;;;;;;5085761;28;20679;-90
2021/06/03 06:32:14;;;;;;;6.10;5.60;;;18.60;99.90;;;;;;5098720;27;20210;-90
2021/06/03 06:34:46;;;;;;;6.47;5.87;;;18.60;99.90;;;;;;5087011;28;20440;-92
2021/06/03 06:37:15;;;;;;;6.40;5.83;;;18.60;99.90;;;;;;5086204;28;20996;-92
2021/06/03 06:39:45;;;;;;;6.67;6.10;;;18.60;99.90;;;;;;5088560;28;20589;-91
2021/06/03 06:42:11;;;;;;;6.13;5.70;;;18.60;99.90;;;;;;5087250;28;20976;-90
2021/06/03 06:44:37;;;;;;;6.73;6.23;;;18.70;99.90;;;;;;5088353;28;20440;-90
2021/06/03 06:47:04;;;;;;;6.33;5.83;;;18.70;99.90;;;;;;5086193;28;20533;-89
2021/06/03 06:49:30;;;;;;;6.47;6.07;;;18.60;99.90;;;;;;5088688;28;20444;-89
2021/06/03 06:51:55;;;;;;;6.27;5.77;;;18.50;99.90;;;;;;5088572;28;20448;-92
2021/06/03 06:54:22;;;;;;;7.33;6.73;;;18.50;99.90;;;;;;5088967;28;20191;-91
2021/06/03 06:56:48;;;;;;;6.70;6.20;;;18.60;99.90;;;;;;5091338;28;20807;-90
2021/06/03 06:59:14;;;;;;;6.60;6.10;;;18.60;99.90;;;;;;5088020;28;20194;-90
2021/06/03 07:01:40;;;;;;;7.33;6.67;;;18.80;99.90;;;;;;5086726;28;20761;-90
2021/06/03 07:04:05;;;;;;;7.33;6.63;;;18.90;99.90;;;;;;5085756;28;20186;-90
2021/06/03 07:06:33;;;;;;;6.73;6.13;;;19.10;99.90;;;;;;5088204;28;20217;-90
2021/06/03 07:08:59;;;;;;;7.30;6.70;;;19.20;99.90;;;;;;5086364;28;20277;-89
2021/06/03 07:11:25;;;;;;;6.50;5.90;;;19.40;99.90;;;;;;5070473;28;20582;-90
2021/06/03 07:14:17;;;;;;;6.43;6.00;;;19.60;99.90;;;;;;5085172;28;20677;-90
2021/06/03 07:16:45;;;;;;;7.27;6.60;;;19.50;99.90;;;;;;5087182;28;20292;-90
2021/06/03 07:21:49;;;;;;;5.77;5.27;;;19.50;99.90;;;;;;5086365;28;20452;-90
2021/06/03 07:24:16;;;;;;;5.70;5.30;;;19.70;99.90;;;;;;5084087;28;20586;-90
2021/06/03 07:26:43;;;;;;;6.93;5.67;;;20.00;99.90;;;;;;5067246;28;21698;-90
2021/06/03 07:29:16;;;;;;;5.20;4.80;;;20.00;99.90;;;;;;5070615;28;20489;-90
2021/06/03 07:31:43;;;;;;;6.70;5.90;;;20.00;99.90;;;;;;5086304;28;20450;-90
2021/06/03 07:34:12;;;;;;;6.40;5.80;;;20.00;99.90;;;;;;5086553;28;20416;-90
2021/06/03 07:36:42;;;;;;;5.30;4.90;;;20.10;99.90;;;;;;5086221;28;20436;-91
2021/06/03 07:39:08;;;;;;;5.60;5.20;;;20.00;99.90;;;;;;5084535;28;20190;-92
2021/06/03 07:41:35;;;;;;;5.10;4.70;;;20.00;99.90;;;;;;5071355;28;20929;-93
2021/06/03 07:44:01;;;;;;;5.33;4.90;;;19.90;99.90;;;;;;5083985;28;20190;-91
2021/06/03 07:46:26;;;;;;;5.53;5.13;;;19.90;99.90;;;;;;5087783;28;20429;-90
2021/06/03 07:49:00;;;;;;;5.67;5.23;;;19.90;99.90;;;;;;5082782;28;20848;-90
2021/06/03 07:51:29;;;;;;;5.30;4.90;;;20.00;99.90;;;;;;5085194;28;20226;-91
2021/06/03 07:57:05;;;;;;;4.80;4.50;;;20.30;99.90;;;;;;5089525;28;20813;-92
2021/06/03 07:59:39;;;;;;;5.20;4.80;;;20.70;99.90;;;;;;5083467;28;20974;-91
2021/06/03 08:02:05;;;;;;;4.97;4.57;;;21.00;99.90;;;;;;5085322;28;20490;-92
2021/06/03 08:07:32;;;;;;;4.87;4.47;;;21.50;99.90;;;;;;5085557;28;21033;-92
2021/06/03 08:10:08;;;;;;;4.90;4.60;;;22.00;99.90;;;;;;5083435;28;20507;-92
2021/06/03 08:12:35;;;;;;;5.50;5.10;;;22.50;99.90;;;;;;5085759;28;20435;-92
2021/06/03 08:15:08;;;;;;;4.93;4.53;;;22.50;99.20;;;;;;5085805;28;20463;-89
2021/06/03 08:17:34;;;;;;;4.77;4.47;;;22.50;98.90;;;;;;5084832;28;20439;-91
2021/06/03 08:20:00;;;;;;;4.90;4.50;;;22.70;99.40;;;;;;5081892;28;20472;-89
2021/06/03 08:22:25;;;;;;;4.47;4.17;;;22.90;98.50;;;;;;5085496;28;20467;-92
2021/06/03 08:25:06;;;;;;;5.20;4.50;;;22.90;97.90;;;;;;5086684;28;20189;-92
2021/06/03 08:27:43;;;;;;;5.23;4.73;;;22.50;98.50;;;;;;5085776;28;20217;-92
2021/06/03 08:30:21;;;;;;;7.40;4.20;;;22.60;98.20;;;;;;5087529;28;20511;-91
2021/06/03 08:35:32;;;;;;;4.90;4.43;;;23.30;98.40;;;;;;5086900;28;20444;-89
2021/06/03 08:38:00;;;;;;;4.83;4.43;;;23.40;96.90;;;;;;5086987;28;20424;-88
2021/06/03 08:40:28;;;;;;;3.93;3.63;;;23.60;96.30;;;;;;5083312;28;21882;-92
2021/06/03 08:42:56;;;;;;;3.63;3.33;;;23.60;95.40;;;;;;5082575;28;20481;-91
2021/06/03 08:45:24;;;;;;;4.37;4.07;;;23.70;95.00;;;;;;5083811;28;20432;-92
2021/06/03 08:47:52;;;;;;;4.23;3.83;;;23.80;95.80;;;;;;5086136;28;20424;-92
2021/06/03 08:50:17;;;;;;;3.80;3.20;;;23.90;95.80;;;;;;5082479;28;21066;-92
2021/06/03 08:52:43;;;;;;;4.27;3.87;;;23.90;94.10;;;;;;5080023;28;20531;-90
2021/06/03 08:56:13;;;;;;;4.20;3.90;;;23.60;94.90;;;;;;5081782;28;20220;-90
2021/06/03 08:58:02;;;;;;;3.67;3.30;;;23.40;94.70;;;;;;5082485;28;20436;-91
2021/06/03 09:00:30;;;;;;;3.30;3.10;;;23.50;94.90;;;;;;5066540;28;20527;-92
2021/06/03 09:02:56;;;;;;;3.73;3.40;;;23.60;94.70;;;;;;5064942;28;20450;-91
2021/06/03 09:05:21;;;;;;;2.70;2.50;;;23.60;95.60;;;;;;5084288;28;20448;-92
2021/06/03 09:07:58;;;;;;;3.17;2.97;;;23.90;94.00;;;;;;5081207;28;20821;-93
2021/06/03 09:10:35;;;;;;;3.17;2.97;;;23.90;93.60;;;;;;5082902;28;20213;-91
2021/06/03 09:13:17;;;;;;;4.00;3.30;;;23.90;95.30;;;;;;5074237;28;20460;-91
2021/06/03 09:16:19;;;;;;;4.00;3.33;;;24.20;93.70;;;;;;5078939;28;20548;-92
2021/06/03 09:18:55;;;;;;;3.07;2.87;;;23.90;93.40;;;;;;5082353;28;20439;-91
2021/06/03 09:21:30;;;;;;;4.93;3.27;;;23.90;94.30;;;;;;5082407;28;20444;-92
2021/06/03 09:24:13;;;;;;;3.43;3.23;;;24.10;93.80;;;;;;5081285;28;20535;-92
2021/06/03 09:26:54;;;;;;;3.33;3.03;;;24.30;93.70;;;;;;5081971;28;21003;-91
2021/06/03 09:29:26;;;;;;;3.00;2.80;;;24.50;93.20;;;;;;5080604;28;20455;-89
2021/06/03 09:32:11;;;;;;;3.20;3.00;;;24.70;93.80;;;;;;5081704;28;20459;-89
2021/06/03 09:34:41;;;;;;;3.70;3.50;;;24.80;92.70;;;;;;5092749;27;20454;-92
2021/06/03 09:37:11;;;;;;;3.57;3.37;;;24.30;93.10;;;;;;5082932;28;20453;-92
2021/06/03 09:39:37;;;;;;;5.93;3.60;;;24.30;93.60;;;;;;5081010;28;20452;-94
2021/06/03 09:42:08;;;;;;;3.93;3.50;;;24.60;93.80;;;;;;5083255;28;20489;-89
2021/06/03 09:44:40;;;;;;;6.73;3.90;;;24.80;93.90;;;;;;5080123;28;20467;-91
2021/06/03 09:47:17;;;;;;;4.10;3.60;;;25.30;95.30;;;;;;5084245;28;20459;-89
2021/06/03 09:49:44;;;;;;;3.63;3.43;;;25.60;92.60;;;;;;5081860;28;21209;-89
2021/06/03 09:52:18;;;;;;;3.80;3.50;;;25.80;93.80;;;;;;5083302;28;20460;-89
2021/06/03 09:54:59;;;;;;;3.97;3.67;;;25.80;93.50;;;;;;5065400;28;20436;-89
2021/06/03 10:00:43;;;;;;;4.20;3.87;;;26.00;93.30;;;;;;5084418;28;20834;-93
2021/06/03 10:03:09;;;;;;;4.00;3.63;;;26.10;92.60;;;;;;5084854;28;20817;-89
2021/06/03 10:05:38;;;;;;;4.00;3.60;;;26.10;93.20;;;;;;5083744;28;20443;-88
2021/06/03 10:08:05;;;;;;;3.73;3.50;;;26.00;91.00;;;;;;5083820;28;20427;-90
2021/06/03 10:10:39;;;;;;;3.40;3.20;;;25.80;90.80;;;;;;5082262;28;20563;-90
2021/06/03 10:13:16;;;;;;;3.30;3.10;;;25.90;91.70;;;;;;5084822;28;20464;-90
2021/06/03 10:15:43;;;;;;;4.10;3.70;;;25.70;90.30;;;;;;5083674;28;20455;-93
2021/06/03 10:18:15;;;;;;;4.17;3.87;;;26.00;90.70;;;;;;5085032;28;20762;-90
2021/06/03 10:20:46;;;;;;;3.60;3.40;;;25.80;90.50;;;;;;5085581;28;20447;-89
2021/06/03 10:23:18;;;;;;;5.93;4.03;;;25.90;90.40;;;;;;5086379;28;20432;-91
2021/06/03 10:25:44;;;;;;;3.93;3.63;;;26.30;90.50;;;;;;5084955;28;20480;-91
2021/06/03 10:28:18;;;;;;;4.73;3.50;;;26.30;89.40;;;;;;5083144;28;20873;-90
2021/06/03 10:31:12;;;;;;;4.23;3.47;;;26.60;89.10;;;;;;5081124;28;20214;-90
2021/06/03 10:33:39;;;;;;;3.53;3.30;;;26.70;88.00;;;;;;5081403;28;20441;-90
2021/06/03 10:36:13;;;;;;;3.80;3.50;;;26.90;91.90;;;;;;5082534;28;20507;-90
2021/06/03 10:38:38;;;;;;;3.50;3.30;;;27.30;88.70;;;;;;5084225;28;20511;-90
2021/06/03 10:41:09;;;;;;;3.30;3.10;;;27.80;85.20;;;;;;5082370;28;20556;-90
2021/06/03 10:43:37;;;;;;;3.17;2.97;;;27.80;83.80;;;;;;5063980;28;20537;-89
2021/06/03 10:46:06;;;;;;;4.37;3.20;;;27.50;83.60;;;;;;5069431;28;20434;-89
2021/06/03 10:48:34;;;;;;;5.10;3.17;;;27.30;82.90;;;;;;5068519;28;20510;-90
2021/06/03 10:51:04;;;;;;;3.20;3.00;;;27.00;84.10;;;;;;5063428;28;20621;-91
2021/06/03 10:53:31;;;;;;;3.90;3.50;;;26.80;83.40;;;;;;5078600;28;20439;-90
2021/06/03 10:56:26;;;;;;;3.53;3.33;;;26.70;83.00;;;;;;5060794;28;20794;-92
2021/06/03 10:58:52;;;;;;;3.47;3.27;;;27.00;84.90;;;;;;5091371;28;20805;-90
2021/06/03 11:01:23;;;;;;;3.60;3.30;;;27.10;85.40;;;;;;5079897;28;20448;-90
2021/06/03 11:04:00;;;;;;;3.47;3.17;;;26.90;83.10;;;;;;5082702;28;20427;-91
2021/06/03 11:06:31;;;;;;;3.40;2.87;;;26.90;80.20;;;;;;5062441;28;21116;-89
2021/06/03 11:08:57;;;;;;;3.03;2.83;;;26.40;81.30;;;;;;5079701;28;20440;-88
2021/06/03 11:11:31;;;;;;;4.20;3.17;;;26.40;82.50;;;;;;5080848;28;20480;-89
2021/06/03 11:14:09;;;;;;;3.90;3.43;;;26.50;87.20;;;;;;5082882;28;20940;-92
2021/06/03 11:16:39;;;;;;;3.10;2.90;;;26.40;82.40;;;;;;5086961;28;20824;-90
2021/06/03 11:19:15;;;;;;;3.47;3.17;;;26.50;83.40;;;;;;5084498;28;20999;-91
2021/06/03 11:21:42;;;;;;;3.87;3.47;;;26.00;84.10;;;;;;5085093;28;20432;-92
2021/06/03 11:24:36;;;;;;;3.20;2.90;;;25.60;84.80;;;;;;5080254;27;20479;-90
2021/06/03 11:27:15;;;;;;;3.30;3.00;;;25.70;87.00;;;;;;5084478;28;20450;-90
2021/06/03 11:29:53;;;;;;;3.30;2.83;;;25.70;88.90;;;;;;5083117;28;20562;-91
2021/06/03 11:32:51;;;;;;;3.10;2.27;;;25.80;87.10;;;;;;5089392;28;20479;-90
2021/06/03 11:35:38;;;;;;;2.83;2.20;;;26.00;86.90;;;;;;5086645;28;20444;-91
2021/06/03 11:38:03;;;;;;;3.87;2.40;;;25.40;87.30;;;;;;5085932;28;20500;-91
2021/06/03 11:40:29;;;;;;;3.33;2.10;;;24.80;90.30;;;;;;5082022;28;20958;-90
2021/06/03 11:43:08;;;;;;;2.60;2.40;;;24.20;91.20;;;;;;5086970;28;20698;-91
2021/06/03 11:45:44;;;;;;;2.40;2.30;;;23.10;92.80;;;;;;5086414;28;20182;-93
2021/06/03 11:48:15;;;;;;;3.50;2.53;;;22.90;94.30;;;;;;5085819;28;20441;-90
2021/06/03 11:50:43;;;;;;;4.60;2.27;;;23.40;96.00;;;;;;5078032;28;20559;-91
2021/06/03 11:53:18;;;;;;;3.00;2.53;;;24.00;94.30;;;;;;5082195;28;20953;-91
2021/06/03 11:55:58;;;;;;;5.43;2.40;;;24.80;96.20;;;;;;5085080;28;20442;-92
2021/06/03 11:58:31;;;;;;;2.60;1.90;;;25.20;92.90;;;;;;5083390;28;20949;-92
2021/06/03 12:01:07;;;;;;;2.50;2.40;;;25.10;93.10;;;;;;5083637;28;20466;-91
2021/06/03 12:04:05;;;;;;;2.30;2.20;;;25.20;93.40;;;;;;5083427;28;20436;-91
2021/06/03 12:06:31;;;;;;;2.40;1.97;;;25.20;91.50;;;;;;5085298;28;20433;-91
2021/06/03 12:09:34;;;;;;;1.97;1.87;;;25.20;91.00;;;;;;5083585;28;20432;-94
2021/06/03 12:12:03;;;;;;;1.97;1.70;;;25.10;90.30;;;;;;5083354;28;20427;-91
2021/06/03 12:14:30;;;;;;;1.87;1.77;;;25.50;90.20;;;;;;5087251;28;20455;-91
2021/06/03 12:17:04;;;;;;;2.17;1.97;;;25.70;89.60;;;;;;5086275;28;20788;-91
2021/06/03 12:19:41;;;;;;;2.00;1.90;;;25.90;88.00;;;;;;5080467;28;20440;-91
2021/06/03 12:22:13;;;;;;;1.90;1.70;;;25.90;86.90;;;;;;5082160;28;20507;-91
2021/06/03 12:24:46;;;;;;;1.93;1.83;;;25.60;88.00;;;;;;5083842;28;20483;-92
2021/06/03 12:27:24;;;;;;;2.70;1.80;;;25.40;89.00;;;;;;5084978;28;20728;-92
2021/06/03 12:29:51;;;;;;;1.53;1.47;;;25.10;85.70;;;;;;5084926;28;20464;-91
2021/06/03 12:32:17;;;;;;;2.13;1.93;;;24.90;87.30;;;;;;5083097;28;20459;-91
2021/06/03 12:34:43;;;;;;;2.00;1.77;;;24.70;88.70;;;;;;5080193;28;20457;-91
2021/06/03 12:37:36;;;;;;;1.77;1.67;;;24.40;90.80;;;;;;5085394;28;20440;-91
2021/06/03 12:40:23;;;;;;;1.20;1.10;;;23.90;92.50;;;;;;5081391;28;20242;-90
2021/06/03 12:42:49;;;;;;;1.80;1.70;;;23.30;92.20;;;;;;5083328;28;20444;-92
2021/06/03 12:45:15;;;;;;;2.70;1.80;;;23.20;93.40;;;;;;5082216;28;20510;-92
2021/06/03 12:47:41;;;;;;;1.60;1.50;;;23.10;93.90;;;;;;5083439;28;20198;-91
2021/06/03 12:50:16;;;;;;;2.20;1.60;;;23.20;93.90;;;;;;5081581;28;20977;-91
2021/06/03 12:52:45;;;;;;;1.70;1.40;;;23.00;94.40;;;;;;5081184;28;20186;-92
2021/06/03 12:55:12;;;;;;;1.80;1.70;;;23.10;94.70;;;;;;5084822;28;20448;-91
2021/06/03 12:57:38;;;;;;;1.97;1.87;;;23.40;93.40;;;;;;5085418;28;20531;-91
2021/06/03 13:00:11;;;;;;;2.17;1.97;;;23.60;94.00;;;;;;5084705;28;20539;-91
2021/06/03 13:02:37;;;;;;;2.13;2.03;;;23.70;93.80;;;;;;5082665;28;20587;-91
2021/06/03 13:05:09;;;;;;;3.87;2.70;;;23.70;93.80;;;;;;5078274;28;21034;-92
2021/06/03 13:07:38;;;;;;;2.60;1.97;;;23.80;93.70;;;;;;5081450;28;20440;-91
2021/06/03 13:10:07;;;;;;;1.80;1.70;;;24.00;92.90;;;;;;5084301;28;20482;-91
2021/06/03 13:12:36;;;;;;;2.37;2.17;;;24.20;92.50;;;;;;5082346;28;20439;-91
2021/06/03 13:15:04;;;;;;;2.93;1.90;;;24.20;92.30;;;;;;5082710;28;20835;-91
2021/06/03 13:17:40;;;;;;;2.80;2.53;;;24.20;92.60;;;;;;5080033;28;20433;-90
2021/06/03 13:20:16;;;;;;;5.30;2.37;;;24.20;92.90;;;;;;5083877;28;20443;-90
2021/06/03 13:22:54;;;;;;;3.63;2.80;;;23.60;94.00;;;;;;5085547;28;20474;-93
2021/06/03 13:25:21;;;;;;;4.63;3.00;;;22.80;98.10;;;;;;5080209;28;20599;-91
2021/06/03 13:27:49;;;;;;;5.50;3.53;;;22.30;99.90;;;;;;5084139;28;20447;-92
2021/06/03 13:30:23;;;;;;;4.37;3.20;;;21.90;99.90;;;;;;5083822;28;20575;-91
2021/06/03 13:33:01;;;;;;;3.87;3.60;;;21.50;99.90;;;;;;5083944;28;20788;-91